Terminal Aerodrome Forecast
Issued by NWS Milwaukee/Sullivan, WI

Home | Current Version | Previous Version | Text Only | Print | Product List | Glossary On
Versions: 1 2 3 4 5 6 7 8 9 10 11 12 13 14 15 16 17 18 19 20 21 22 23 24 25 26 27 28 29 30 31 32
000
FTUS43 KMKX 171720
TAFMSN
TAF
KMSN 171720Z 1718/1818 24010G16KT P6SM FEW100 SCT250
     FM171900 24012G24KT P6SM FEW140 SCT250
     FM180000 23012G21KT P6SM FEW130 SCT250 WS020/26045KT
     FM180900 25010KT P6SM FEW250 WS020/28035KT
     FM181000 25009KT P6SM FEW250=

USA.gov is the U.S. government's official web portal to all federal, state and local government web resources and services.